createdAt,value
2022-08-05T00:00:50.145Z,936.52
2022-08-05T00:01:49.873Z,936.53
2022-08-05T00:02:54.063Z,936.51
2022-08-05T00:03:54.421Z,936.53
2022-08-05T00:04:55.701Z,936.55
2022-08-05T00:06:36.010Z,936.58
2022-08-05T00:07:59.562Z,936.57
2022-08-05T00:08:48.266Z,936.52
2022-08-05T00:09:49.359Z,936.51
2022-08-05T00:10:49.812Z,936.48
2022-08-05T00:11:55.928Z,936.46
2022-08-05T00:12:55.704Z,936.45
2022-08-05T00:14:12.175Z,936.45
2022-08-05T00:15:14.079Z,936.45
2022-08-05T00:16:15.409Z,936.41
2022-08-05T00:17:28.511Z,936.39
2022-08-05T00:18:21.496Z,936.38
2022-08-05T00:19:16.753Z,936.36
2022-08-05T00:20:20.867Z,936.38
2022-08-05T00:21:21.483Z,936.32
2022-08-05T00:22:21.822Z,936.36
2022-08-05T00:23:30.979Z,936.34
2022-08-05T00:25:13.082Z,936.33
2022-08-05T00:26:13.588Z,936.27
2022-08-05T00:27:16.674Z,936.29
2022-08-05T00:28:15.235Z,936.27
2022-08-05T00:29:16.306Z,936.3
2022-08-05T00:30:16.735Z,936.27
2022-08-05T00:31:41.538Z,936.27
2022-08-05T00:32:31.598Z,936.25
2022-08-05T00:34:43.173Z,936.27
2022-08-05T00:35:20.991Z,936.25
2022-08-05T00:37:53.668Z,936.24
2022-08-05T00:38:51.141Z,936.24
2022-08-05T00:39:57.571Z,936.24
2022-08-05T00:40:53.370Z,936.21
2022-08-05T00:41:55.712Z,936.21
2022-08-05T00:42:52.830Z,936.17
2022-08-05T00:43:53.023Z,936.17
2022-08-05T00:44:53.446Z,936.15
2022-08-05T00:45:54.344Z,936.15
2022-08-05T00:47:01.800Z,936.15
2022-08-05T00:48:27.640Z,936.15
2022-08-05T00:49:26.625Z,936.16
2022-08-05T00:50:26.970Z,936.13
2022-08-05T00:51:50.210Z,936.15
2022-08-05T00:52:29.000Z,936.12
2022-08-05T00:53:45.568Z,936.13
2022-08-05T00:54:30.138Z,936.13
2022-08-05T00:55:34.281Z,936.14
2022-08-05T00:56:30.810Z,936.15
2022-08-05T00:57:31.680Z,936.15
2022-08-05T00:58:42.572Z,936.18
2022-08-05T00:59:44.149Z,936.2
2022-08-05T01:00:42.824Z,936.2
2022-08-05T01:01:47.941Z,936.19
2022-08-05T01:02:44.409Z,936.18
2022-08-05T01:03:45.173Z,936.22
2022-08-05T01:04:46.059Z,936.24
2022-08-05T01:05:47.144Z,936.28
2022-08-05T01:06:48.654Z,936.28
2022-08-05T01:08:30.592Z,936.22
2022-08-05T01:09:30.431Z,936.23
2022-08-05T01:10:29.344Z,936.25
2022-08-05T01:11:33.809Z,936.25
2022-08-05T01:12:30.277Z,936.26
2022-08-05T01:13:57.160Z,936.26
2022-08-05T01:14:31.591Z,936.24
2022-08-05T01:15:34.998Z,936.28
2022-08-05T01:16:32.778Z,936.32
2022-08-05T01:17:40.040Z,936.3
2022-08-05T01:18:33.990Z,936.31
2022-08-05T01:19:46.419Z,936.27
2022-08-05T01:20:35.573Z,936.31
2022-08-05T01:21:37.975Z,936.25
2022-08-05T01:22:37.049Z,936.26
2022-08-05T01:23:37.659Z,936.23
2022-08-05T01:24:38.060Z,936.25
2022-08-05T01:25:40.307Z,936.26
2022-08-05T01:26:39.377Z,936.24
2022-08-05T01:27:41.054Z,936.23
2022-08-05T01:28:41.224Z,936.25
2022-08-05T01:29:43.011Z,936.25
2022-08-05T01:30:46.614Z,936.26
2022-08-05T01:31:45.069Z,936.29
2022-08-05T01:32:44.697Z,936.28
2022-08-05T01:33:49.078Z,936.27
2022-08-05T01:34:45.701Z,936.27
2022-08-05T01:35:50.501Z,936.28
2022-08-05T01:36:46.936Z,936.28
2022-08-05T01:37:47.539Z,936.3
2022-08-05T01:38:48.287Z,936.31
2022-08-05T01:39:48.340Z,936.32
2022-08-05T01:40:48.510Z,936.31
2022-08-05T01:41:49.418Z,936.28
2022-08-05T01:42:50.211Z,936.31
2022-08-05T01:43:50.663Z,936.29
2022-08-05T01:44:53.982Z,936.3
2022-08-05T01:45:56.346Z,936.32
2022-08-05T01:46:58.764Z,936.33
2022-08-05T01:47:59.714Z,936.33
2022-08-05T01:49:00.317Z,936.32
2022-08-05T01:50:37.933Z,936.32
2022-08-05T01:51:38.881Z,936.33
2022-08-05T01:52:39.039Z,936.3
2022-08-05T01:53:55.379Z,936.3
2022-08-05T01:54:45.979Z,936.34
2022-08-05T01:55:40.992Z,936.32
2022-08-05T01:58:09.109Z,936.34
2022-08-05T01:58:59.886Z,936.34
2022-08-05T02:00:00.255Z,936.36
2022-08-05T02:01:01.234Z,936.31
2022-08-05T02:02:10.696Z,936.34
2022-08-05T02:03:16.278Z,936.3
2022-08-05T02:04:10.569Z,936.34
2022-08-05T02:05:11.717Z,936.31
2022-08-05T02:06:12.760Z,936.33
2022-08-05T02:07:12.328Z,936.3
2022-08-05T02:08:12.905Z,936.3
2022-08-05T02:09:16.388Z,936.33
2022-08-05T02:10:17.236Z,936.3
2022-08-05T02:11:23.743Z,936.36
2022-08-05T02:12:23.019Z,936.3
2022-08-05T02:13:23.585Z,936.32
2022-08-05T02:14:24.366Z,936.31
2022-08-05T02:15:24.659Z,936.34
2022-08-05T02:16:25.044Z,936.3
2022-08-05T02:17:30.045Z,936.33
2022-08-05T02:18:54.139Z,936.31
2022-08-05T02:19:54.340Z,936.32
2022-08-05T02:20:55.351Z,936.31
2022-08-05T02:21:55.731Z,936.34
2022-08-05T02:22:56.194Z,936.3
2022-08-05T02:23:56.545Z,936.35
2022-08-05T02:24:57.568Z,936.35
2022-08-05T02:25:58.547Z,936.33
2022-08-05T02:26:58.920Z,936.35
2022-08-05T02:28:00.436Z,936.32
2022-08-05T02:29:00.105Z,936.36
2022-08-05T02:30:10.056Z,936.34
2022-08-05T02:31:14.313Z,936.34
2022-08-05T02:32:10.742Z,936.36
2022-08-05T02:33:16.166Z,936.35
2022-08-05T02:34:17.024Z,936.39
2022-08-05T02:35:18.949Z,936.37
2022-08-05T02:36:18.250Z,936.39
2022-08-05T02:37:18.489Z,936.38
2022-08-05T02:38:19.905Z,936.37
2022-08-05T02:39:20.558Z,936.38
2022-08-05T02:40:20.916Z,936.35
2022-08-05T02:41:21.219Z,936.37
2022-08-05T02:42:27.760Z,936.35
2022-08-05T02:43:28.837Z,936.35
2022-08-05T02:44:29.550Z,936.34
2022-08-05T02:45:51.782Z,936.34
2022-08-05T02:46:30.921Z,936.34
2022-08-05T02:47:36.591Z,936.35
2022-08-05T02:48:34.873Z,936.36
2022-08-05T02:49:36.274Z,936.3
2022-08-05T02:50:35.914Z,936.29
2022-08-05T02:52:01.354Z,936.34
2022-08-05T02:52:36.023Z,936.29
2022-08-05T02:53:39.240Z,936.3
2022-08-05T02:54:41.105Z,936.29
2022-08-05T02:55:52.364Z,936.31
2022-08-05T02:56:39.240Z,936.34
2022-08-05T02:58:09.599Z,936.37
2022-08-05T02:58:43.576Z,936.27
2022-08-05T02:59:48.057Z,936.27
2022-08-05T03:00:41.657Z,936.28
2022-08-05T03:01:41.793Z,936.31
2022-08-05T03:02:43.034Z,936.26
2022-08-05T03:04:02.359Z,936.29
2022-08-05T03:04:43.239Z,936.25
2022-08-05T03:06:53.135Z,936.25
2022-08-05T03:08:07.469Z,936.31
2022-08-05T03:09:02.671Z,936.27
2022-08-05T03:10:03.511Z,936.29
2022-08-05T03:11:55.915Z,936.28
2022-08-05T03:12:17.955Z,936.32
2022-08-05T03:13:18.160Z,936.36
2022-08-05T03:14:19.504Z,936.37
2022-08-05T03:15:20.609Z,936.32
2022-08-05T03:16:20.910Z,936.32
2022-08-05T03:17:21.943Z,936.34
2022-08-05T03:18:24.786Z,936.31
2022-08-05T03:19:33.340Z,936.31
2022-08-05T03:20:23.605Z,936.31
2022-08-05T03:21:23.319Z,936.29
2022-08-05T03:22:31.851Z,936.31
2022-08-05T03:23:24.739Z,936.31
2022-08-05T03:24:29.732Z,936.28
2022-08-05T03:25:32.079Z,936.28
2022-08-05T03:26:49.650Z,936.34
2022-08-05T03:27:58.075Z,936.29
2022-08-05T03:28:50.434Z,936.32
2022-08-05T03:30:07.163Z,936.28
2022-08-05T03:30:51.296Z,936.32
2022-08-05T03:32:00.423Z,936.34
2022-08-05T03:32:56.421Z,936.29
2022-08-05T03:33:56.675Z,936.31
2022-08-05T03:34:57.279Z,936.27
2022-08-05T03:35:58.326Z,936.28
2022-08-05T03:36:59.142Z,936.28
2022-08-05T03:37:59.452Z,936.3
2022-08-05T03:39:00.452Z,936.28
2022-08-05T03:40:01.960Z,936.29
2022-08-05T03:41:04.111Z,936.29
2022-08-05T03:42:02.041Z,936.28
2022-08-05T03:43:16.136Z,936.28
2022-08-05T03:44:34.767Z,936.3
2022-08-05T03:45:55.455Z,936.28
2022-08-05T03:47:17.067Z,936.28
2022-08-05T03:48:19.779Z,936.31
2022-08-05T03:49:18.173Z,936.29
2022-08-05T03:50:18.366Z,936.28
2022-08-05T03:52:35.866Z,936.27
2022-08-05T03:55:00.680Z,936.29
2022-08-05T03:57:17.994Z,936.26
2022-08-05T03:58:18.185Z,936.28
2022-08-05T03:59:20.157Z,936.31
2022-08-05T04:00:19.040Z,936.3
2022-08-05T04:01:20.862Z,936.32
2022-08-05T04:02:38.130Z,936.31
2022-08-05T04:03:28.655Z,936.31
2022-08-05T04:04:27.541Z,936.32
2022-08-05T04:05:33.105Z,936.31
2022-08-05T04:06:28.873Z,936.32
2022-08-05T04:07:29.949Z,936.33
2022-08-05T04:08:37.171Z,936.34
2022-08-05T04:09:37.735Z,936.37
2022-08-05T04:10:38.466Z,936.36
2022-08-05T04:11:47.188Z,936.38
2022-08-05T04:13:49.468Z,936.47
2022-08-05T04:14:40.594Z,936.4
2022-08-05T04:15:52.577Z,936.43
2022-08-05T04:16:42.169Z,936.43
2022-08-05T04:17:55.973Z,936.42
2022-08-05T04:18:43.782Z,936.43
2022-08-05T04:19:44.148Z,936.46
2022-08-05T04:20:44.776Z,936.51
2022-08-05T04:22:04.984Z,936.54
2022-08-05T04:22:46.382Z,936.62
2022-08-05T04:23:57.442Z,936.7
2022-08-05T04:24:52.362Z,936.75
2022-08-05T04:25:56.996Z,936.78
2022-08-05T04:26:48.482Z,936.84
2022-08-05T04:27:56.769Z,936.68
2022-08-05T04:28:50.930Z,936.83
2022-08-05T04:29:50.839Z,936.88
2022-08-05T04:30:50.973Z,936.8
2022-08-05T04:31:51.729Z,936.84
2022-08-05T04:32:52.565Z,936.87
2022-08-05T04:33:55.039Z,936.82
2022-08-05T04:34:53.391Z,936.78
2022-08-05T04:36:16.019Z,936.83
2022-08-05T04:37:12.690Z,936.79
2022-08-05T04:38:39.320Z,936.84
2022-08-05T04:39:39.101Z,936.84
2022-08-05T04:40:39.518Z,936.84
2022-08-05T04:41:40.232Z,936.85
2022-08-05T04:42:40.368Z,936.81
2022-08-05T04:43:46.720Z,936.83
2022-08-05T04:44:41.079Z,936.8
2022-08-05T04:45:48.000Z,936.83
2022-08-05T04:46:42.386Z,936.83
2022-08-05T04:47:42.941Z,936.82
2022-08-05T04:48:43.554Z,936.85
2022-08-05T04:50:02.233Z,936.83
2022-08-05T04:51:11.718Z,936.85
2022-08-05T04:52:11.824Z,936.85
2022-08-05T04:53:12.034Z,936.86
2022-08-05T04:54:12.860Z,936.85
2022-08-05T04:55:14.122Z,936.86
2022-08-05T04:56:44.231Z,936.88
2022-08-05T04:57:47.664Z,936.9
2022-08-05T04:58:44.736Z,936.88
2022-08-05T04:59:54.429Z,936.89
2022-08-05T05:00:54.661Z,936.88
2022-08-05T05:02:06.563Z,936.95
2022-08-05T05:02:58.197Z,936.99
2022-08-05T05:03:56.288Z,937
2022-08-05T05:05:02.070Z,936.96
2022-08-05T05:06:57.517Z,937.02
2022-08-05T05:07:55.221Z,937.03
2022-08-05T05:08:53.728Z,936.98
2022-08-05T05:09:54.431Z,936.95
2022-08-05T05:10:56.070Z,936.97
2022-08-05T05:11:59.031Z,937.05
2022-08-05T05:12:56.539Z,937.03
2022-08-05T05:13:56.713Z,937.05
2022-08-05T05:14:56.852Z,937.02
2022-08-05T05:16:02.098Z,937.09
2022-08-05T05:16:57.525Z,937.08
2022-08-05T05:17:58.625Z,937.06
2022-08-05T05:19:18.010Z,937.08
2022-08-05T05:20:00.637Z,937.04
2022-08-05T05:21:00.865Z,937.06
2022-08-05T05:22:03.539Z,937.05
2022-08-05T05:23:08.042Z,937.07
2022-08-05T05:24:04.349Z,937.06
2022-08-05T05:25:17.569Z,937.05
2022-08-05T05:26:17.917Z,936.99
2022-08-05T05:27:18.527Z,937.02
2022-08-05T05:28:19.133Z,937.04
2022-08-05T05:29:19.568Z,937.03
2022-08-05T05:30:36.609Z,937.06
2022-08-05T05:32:37.144Z,937.04
2022-08-05T05:33:41.191Z,937.11
2022-08-05T05:34:38.125Z,937.08
2022-08-05T05:35:39.812Z,937.05
2022-08-05T05:36:39.595Z,936.98
2022-08-05T05:37:59.156Z,937.03
2022-08-05T05:38:40.969Z,937.03
2022-08-05T05:39:42.456Z,937.03
2022-08-05T05:40:48.512Z,937.04
2022-08-05T05:41:42.906Z,937.04
2022-08-05T05:42:47.035Z,937.06
2022-08-05T05:43:57.774Z,937.04
2022-08-05T05:45:00.116Z,936.98
2022-08-05T05:46:00.468Z,936.98
2022-08-05T05:47:02.238Z,937.03
2022-08-05T05:48:16.574Z,937.02
2022-08-05T05:49:22.358Z,937.04
2022-08-05T05:50:19.720Z,937.05
2022-08-05T05:51:18.429Z,937.06
2022-08-05T05:52:28.469Z,937.03
2022-08-05T05:53:27.262Z,937.09
2022-08-05T05:54:35.081Z,937.12
2022-08-05T05:55:51.317Z,937.15
2022-08-05T05:56:34.655Z,937.11
2022-08-05T05:57:34.139Z,937.07
2022-08-05T05:58:33.864Z,937.12
2022-08-05T05:59:40.068Z,937.15
2022-08-05T06:00:34.971Z,937.12
2022-08-05T06:01:37.264Z,937.13
2022-08-05T06:02:42.524Z,937.12
2022-08-05T06:03:54.311Z,937.12
2022-08-05T06:04:44.129Z,937.1
2022-08-05T06:05:44.988Z,937.11
2022-08-05T06:06:46.811Z,937.15
2022-08-05T06:07:57.693Z,937.16
2022-08-05T06:08:49.146Z,937.14
2022-08-05T06:09:51.298Z,937.14
2022-08-05T06:10:49.056Z,937.13
2022-08-05T06:11:59.852Z,937.16
2022-08-05T06:12:58.019Z,937.14
2022-08-05T06:14:00.228Z,937.11
2022-08-05T06:15:00.033Z,937.13
2022-08-05T06:16:37.982Z,937.11
2022-08-05T06:17:52.557Z,937.13
2022-08-05T06:18:39.317Z,937.18
2022-08-05T06:19:39.715Z,937.18
2022-08-05T06:20:40.286Z,937.21
2022-08-05T06:21:41.731Z,937.22
2022-08-05T06:22:41.954Z,937.22
2022-08-05T06:23:45.030Z,937.24
2022-08-05T06:24:46.703Z,937.24
2022-08-05T06:26:13.183Z,937.27
2022-08-05T06:27:00.668Z,937.27
2022-08-05T06:28:29.153Z,937.28
2022-08-05T06:29:45.569Z,937.25
2022-08-05T06:30:34.134Z,937.32
2022-08-05T06:31:34.599Z,937.33
2022-08-05T06:32:35.295Z,937.26
2022-08-05T06:34:06.572Z,937.27
2022-08-05T06:36:09.989Z,937.4
2022-08-05T06:37:08.185Z,937.4
2022-08-05T06:38:12.052Z,937.42
2022-08-05T06:39:12.066Z,937.43
2022-08-05T06:40:12.656Z,937.47
2022-08-05T06:41:12.884Z,937.51
2022-08-05T06:42:13.701Z,937.53
2022-08-05T06:43:51.927Z,937.56
2022-08-05T06:44:18.388Z,937.59
2022-08-05T06:45:20.973Z,937.61
2022-08-05T06:46:52.170Z,937.6
2022-08-05T06:48:56.616Z,937.66
2022-08-05T06:50:04.909Z,937.63
2022-08-05T06:51:00.794Z,937.62
2022-08-05T06:52:01.475Z,937.65
2022-08-05T06:53:04.135Z,937.66
2022-08-05T06:54:03.237Z,937.68
2022-08-05T06:55:03.728Z,937.68
2022-08-05T06:56:04.790Z,937.68
2022-08-05T06:58:03.635Z,937.72
2022-08-05T06:59:25.175Z,937.7
2022-08-05T07:00:26.242Z,937.71
2022-08-05T07:01:27.804Z,937.72
2022-08-05T07:02:27.178Z,937.74
2022-08-05T07:03:32.615Z,937.73
2022-08-05T07:04:28.946Z,937.75
2022-08-05T07:05:31.942Z,937.78
2022-08-05T07:06:29.743Z,937.82
2022-08-05T07:07:35.331Z,937.79
2022-08-05T07:08:30.351Z,937.78
2022-08-05T07:09:32.767Z,937.77
2022-08-05T07:10:33.649Z,937.76
2022-08-05T07:11:36.696Z,937.79
2022-08-05T07:12:35.331Z,937.83
2022-08-05T07:13:57.263Z,937.81
2022-08-05T07:14:36.301Z,937.85
2022-08-05T07:16:00.714Z,937.89
2022-08-05T07:18:30.274Z,937.82
2022-08-05T07:20:05.000Z,937.85
2022-08-05T07:20:50.923Z,937.84
2022-08-05T07:22:02.941Z,937.85
2022-08-05T07:23:04.526Z,937.84
2022-08-05T07:24:04.934Z,937.81
2022-08-05T07:25:09.745Z,937.81
2022-08-05T07:26:14.022Z,937.81
2022-08-05T07:27:14.409Z,937.78
2022-08-05T07:28:17.320Z,937.82
2022-08-05T07:29:15.732Z,937.81
2022-08-05T07:30:52.992Z,937.86
2022-08-05T07:31:54.858Z,937.85
2022-08-05T07:32:54.213Z,937.88
2022-08-05T07:33:55.093Z,937.89
2022-08-05T07:34:57.862Z,937.93
2022-08-05T07:36:33.645Z,937.91
2022-08-05T07:37:35.889Z,937.92
2022-08-05T07:38:42.983Z,937.92
2022-08-05T07:40:27.201Z,937.97
2022-08-05T07:42:13.644Z,937.98
2022-08-05T07:43:14.727Z,938.03
2022-08-05T07:44:14.606Z,938.08
2022-08-05T07:45:13.067Z,938.1
2022-08-05T07:46:26.310Z,938.1
2022-08-05T07:47:26.764Z,938.11
2022-08-05T07:48:35.096Z,938.13
2022-08-05T07:49:27.357Z,938.12
2022-08-05T07:50:28.963Z,938.15
2022-08-05T07:51:36.520Z,938.2
2022-08-05T07:52:29.543Z,938.22
2022-08-05T07:53:36.777Z,938.26
2022-08-05T07:54:33.711Z,938.32
2022-08-05T07:57:18.253Z,938.4
2022-08-05T07:59:09.113Z,938.4
2022-08-05T08:00:10.473Z,938.45
2022-08-05T08:01:12.234Z,938.46
2022-08-05T08:02:16.320Z,938.45
2022-08-05T08:03:22.226Z,938.48
2022-08-05T08:04:23.042Z,938.49
2022-08-05T08:05:23.299Z,938.52
2022-08-05T08:06:23.804Z,938.57
2022-08-05T08:07:24.950Z,938.5
2022-08-05T08:08:51.545Z,938.55
2022-08-05T08:09:52.865Z,938.55
2022-08-05T08:10:52.884Z,938.64
2022-08-05T08:11:59.057Z,938.6
2022-08-05T08:13:04.335Z,938.59
2022-08-05T08:14:05.036Z,938.62
2022-08-05T08:15:09.541Z,938.62
2022-08-05T08:17:02.421Z,938.63
2022-08-05T08:18:05.021Z,938.64
2022-08-05T08:19:04.328Z,938.66
2022-08-05T08:21:53.104Z,938.71
2022-08-05T08:22:53.907Z,938.74
2022-08-05T08:24:14.014Z,938.77
2022-08-05T08:25:15.988Z,938.77
2022-08-05T08:26:14.076Z,938.79
2022-08-05T08:27:16.598Z,938.85
2022-08-05T08:28:18.597Z,938.82
2022-08-05T08:30:39.297Z,938.9
2022-08-05T08:31:34.074Z,938.86
2022-08-05T08:32:34.371Z,938.9
2022-08-05T08:33:39.209Z,938.94
2022-08-05T08:34:39.787Z,938.95
2022-08-05T08:35:41.184Z,939.02
2022-08-05T08:37:04.958Z,939.08
2022-08-05T08:38:04.456Z,939.1
2022-08-05T08:39:04.910Z,939.08
2022-08-05T08:40:05.797Z,939.03
2022-08-05T08:41:06.365Z,939.06
2022-08-05T08:42:11.016Z,939.14
2022-08-05T08:45:17.611Z,939.11
2022-08-05T08:46:17.377Z,939.16
2022-08-05T08:47:21.615Z,939.19
2022-08-05T08:50:30.830Z,939.2
2022-08-05T08:52:53.856Z,939.19
2022-08-05T08:53:54.725Z,939.29
2022-08-05T08:54:55.394Z,939.3
2022-08-05T08:56:06.366Z,939.32
2022-08-05T08:57:11.108Z,939.33
2022-08-05T08:58:07.170Z,939.39
2022-08-05T08:59:10.148Z,939.41
2022-08-05T09:00:08.339Z,939.37
2022-08-05T09:01:10.927Z,939.38
2022-08-05T09:02:09.223Z,939.4
2022-08-05T09:03:10.252Z,939.42
2022-08-05T09:04:11.303Z,939.39
2022-08-05T09:05:17.092Z,939.48
2022-08-05T09:06:30.673Z,939.5
2022-08-05T09:07:34.312Z,939.56
2022-08-05T09:08:31.542Z,939.55
2022-08-05T09:09:32.570Z,939.58
2022-08-05T09:10:33.305Z,939.6
2022-08-05T09:11:52.271Z,939.58
2022-08-05T09:12:34.562Z,939.61
2022-08-05T09:14:54.180Z,939.61
2022-08-05T09:15:23.996Z,939.59
2022-08-05T09:16:26.847Z,939.6
2022-08-05T09:17:41.597Z,939.6
2022-08-05T09:18:26.631Z,939.58
2022-08-05T09:19:27.667Z,939.6
2022-08-05T09:20:37.557Z,939.65
2022-08-05T09:22:18.602Z,939.65
2022-08-05T09:23:21.840Z,939.62
2022-08-05T09:24:19.966Z,939.6
2022-08-05T09:26:08.512Z,939.65
2022-08-05T09:27:07.392Z,939.67
2022-08-05T09:28:21.833Z,939.66
2022-08-05T09:29:30.822Z,939.69
2022-08-05T09:30:23.820Z,939.68
2022-08-05T09:32:39.437Z,939.73
2022-08-05T09:33:08.251Z,939.73
2022-08-05T09:34:09.733Z,939.71
2022-08-05T09:35:09.901Z,939.67
2022-08-05T09:36:11.664Z,939.64
2022-08-05T09:38:30.212Z,939.68
2022-08-05T09:39:41.724Z,939.65
2022-08-05T09:40:32.041Z,939.7
2022-08-05T09:41:32.857Z,939.7
2022-08-05T09:42:33.457Z,939.7
2022-08-05T09:43:41.549Z,939.68
2022-08-05T09:44:34.165Z,939.66
2022-08-05T09:46:05.312Z,939.67
2022-08-05T09:46:35.705Z,939.69
2022-08-05T09:47:48.926Z,939.68
2022-08-05T09:49:19.992Z,939.73
2022-08-05T09:50:37.499Z,939.73
2022-08-05T09:51:21.613Z,939.74
2022-08-05T09:52:22.131Z,939.74
2022-08-05T09:53:26.270Z,939.75
2022-08-05T09:54:29.200Z,939.78
2022-08-05T09:55:55.736Z,939.81
2022-08-05T09:56:24.976Z,939.78
2022-08-05T09:57:25.658Z,939.8
2022-08-05T09:58:26.019Z,939.82
2022-08-05T09:59:27.519Z,939.83
2022-08-05T10:00:26.851Z,939.84
2022-08-05T10:01:31.642Z,939.85
2022-08-05T10:02:27.692Z,939.84
2022-08-05T10:03:38.605Z,939.85
2022-08-05T10:04:30.044Z,939.83
2022-08-05T10:05:32.866Z,939.78
2022-08-05T10:06:31.191Z,939.84
2022-08-05T10:08:10.505Z,939.82
2022-08-05T10:09:03.639Z,939.87
2022-08-05T10:10:50.146Z,939.89
2022-08-05T10:11:49.089Z,939.88
2022-08-05T10:12:50.364Z,939.88
2022-08-05T10:13:54.455Z,939.87
2022-08-05T10:14:50.848Z,939.9
2022-08-05T10:15:51.656Z,939.91
2022-08-05T10:16:53.406Z,939.89
2022-08-05T10:17:54.396Z,939.84
2022-08-05T10:18:53.188Z,939.86
2022-08-05T10:20:03.474Z,939.8
2022-08-05T10:21:16.822Z,939.86
2022-08-05T10:22:29.638Z,939.89
2022-08-05T10:23:22.003Z,939.85
2022-08-05T10:24:19.386Z,939.88
2022-08-05T10:25:19.698Z,939.89
2022-08-05T10:26:24.190Z,939.87
2022-08-05T10:27:26.179Z,939.86
2022-08-05T10:28:42.925Z,939.86
2022-08-05T10:30:07.433Z,939.88
2022-08-05T10:32:55.950Z,939.82
2022-08-05T10:34:01.751Z,939.83
2022-08-05T10:35:02.246Z,939.81
2022-08-05T10:36:02.902Z,939.83
2022-08-05T10:37:03.464Z,939.79
2022-08-05T10:38:04.300Z,939.8
2022-08-05T10:39:05.190Z,939.81
2022-08-05T10:40:34.458Z,939.8
2022-08-05T10:41:45.063Z,939.83
2022-08-05T10:42:35.446Z,939.86
2022-08-05T10:43:36.416Z,939.83
2022-08-05T10:44:36.306Z,939.86
2022-08-05T10:45:39.925Z,939.85
2022-08-05T10:46:37.534Z,939.85
2022-08-05T10:47:37.721Z,939.84
2022-08-05T10:49:10.662Z,939.81
2022-08-05T10:50:37.275Z,939.79
2022-08-05T10:51:40.195Z,939.81
2022-08-05T10:52:38.589Z,939.79
2022-08-05T10:53:39.690Z,939.72
2022-08-05T10:54:46.843Z,939.71
2022-08-05T10:56:25.620Z,939.67
2022-08-05T10:57:22.472Z,939.64
2022-08-05T10:58:23.450Z,939.65
2022-08-05T11:00:12.108Z,939.65
2022-08-05T11:01:08.797Z,939.66
2022-08-05T11:02:37.792Z,939.67
2022-08-05T11:03:35.899Z,939.64
2022-08-05T11:04:36.631Z,939.67
2022-08-05T11:05:36.787Z,939.67
2022-08-05T11:06:37.170Z,939.71
2022-08-05T11:08:37.525Z,939.74
2022-08-05T11:09:24.343Z,939.75
2022-08-05T11:10:27.307Z,939.82
2022-08-05T11:11:24.666Z,939.82
2022-08-05T11:12:25.240Z,939.8
2022-08-05T11:13:25.593Z,939.83
2022-08-05T11:14:43.127Z,939.84
2022-08-05T11:16:10.650Z,939.78
2022-08-05T11:17:53.286Z,939.76
2022-08-05T11:18:20.622Z,939.69
2022-08-05T11:20:22.676Z,939.65
2022-08-05T11:21:23.343Z,939.62
2022-08-05T11:22:23.907Z,939.62
2022-08-05T11:23:25.220Z,939.66
2022-08-05T11:26:03.696Z,939.66
2022-08-05T11:26:34.364Z,939.65
2022-08-05T11:27:45.890Z,939.61
2022-08-05T11:28:35.960Z,939.62
2022-08-05T11:29:35.981Z,939.65
2022-08-05T11:30:36.688Z,939.68
2022-08-05T11:32:01.605Z,939.68
2022-08-05T11:33:02.271Z,939.71
2022-08-05T11:34:03.542Z,939.66
2022-08-05T11:35:03.646Z,939.61
2022-08-05T11:36:08.994Z,939.55
2022-08-05T11:38:27.121Z,939.53
2022-08-05T11:39:04.156Z,939.54
2022-08-05T11:40:04.760Z,939.5
2022-08-05T11:41:14.433Z,939.49
2022-08-05T11:42:28.547Z,939.55
2022-08-05T11:44:08.759Z,939.61
2022-08-05T11:45:14.129Z,939.63
2022-08-05T11:47:49.183Z,939.62
2022-08-05T11:48:23.166Z,939.62
2022-08-05T11:49:24.079Z,939.59
2022-08-05T11:50:25.202Z,939.51
2022-08-05T11:51:43.874Z,939.5
2022-08-05T11:52:29.152Z,939.53
2022-08-05T11:53:26.421Z,939.53
2022-08-05T11:54:32.946Z,939.52
2022-08-05T11:55:38.745Z,939.56
2022-08-05T11:56:40.842Z,939.52
2022-08-05T11:58:07.949Z,939.5
2022-08-05T11:58:39.989Z,939.55
2022-08-05T11:59:41.317Z,939.55
2022-08-05T12:00:41.477Z,939.52
2022-08-05T12:01:41.176Z,939.51
2022-08-05T12:02:42.173Z,939.48
2022-08-05T12:03:42.812Z,939.46
2022-08-05T12:04:43.116Z,939.41
2022-08-05T12:06:11.929Z,939.43
2022-08-05T12:07:12.149Z,939.41
2022-08-05T12:08:25.930Z,939.43
2022-08-05T12:09:37.828Z,939.42
2022-08-05T12:10:38.362Z,939.39
2022-08-05T12:11:28.172Z,939.4
2022-08-05T12:12:27.840Z,939.37
2022-08-05T12:13:48.310Z,939.34
2022-08-05T12:14:28.577Z,939.31
2022-08-05T12:15:34.646Z,939.35
2022-08-05T12:16:32.950Z,939.33
2022-08-05T12:18:04.490Z,939.36
2022-08-05T12:18:41.052Z,939.36
2022-08-05T12:20:17.438Z,939.34
2022-08-05T12:20:55.515Z,939.32
2022-08-05T12:21:54.878Z,939.33
2022-08-05T12:22:55.689Z,939.29
2022-08-05T12:24:56.279Z,939.21
2022-08-05T12:25:57.284Z,939.21
2022-08-05T12:26:56.961Z,939.19
2022-08-05T12:28:02.922Z,939.17
2022-08-05T12:29:03.549Z,939.16
2022-08-05T12:30:04.540Z,939.14
2022-08-05T12:31:05.131Z,939.12
2022-08-05T12:32:07.483Z,939.11
2022-08-05T12:33:06.851Z,939.08
2022-08-05T12:34:06.355Z,939.07
2022-08-05T12:35:07.183Z,939.1
2022-08-05T12:36:09.087Z,939.09
2022-08-05T12:37:08.810Z,939.07
2022-08-05T12:38:10.251Z,939.06
2022-08-05T12:39:10.183Z,939.04
2022-08-05T12:40:11.270Z,939.03
2022-08-05T12:41:13.043Z,939.01
2022-08-05T12:42:14.550Z,939.05
2022-08-05T12:43:12.748Z,939.04
2022-08-05T12:44:14.129Z,939.05
2022-08-05T12:45:14.880Z,939.07
2022-08-05T12:46:15.032Z,939.07
2022-08-05T12:47:19.015Z,939.06
2022-08-05T12:48:27.861Z,939.08
2022-08-05T12:49:20.346Z,939.04
2022-08-05T12:50:20.203Z,939.03
2022-08-05T12:51:22.015Z,938.99
2022-08-05T12:52:48.233Z,938.94
2022-08-05T12:53:55.631Z,938.93
2022-08-05T12:54:50.219Z,938.93
2022-08-05T12:55:50.633Z,938.94
2022-08-05T12:56:51.143Z,938.99
2022-08-05T12:59:02.599Z,939.04
2022-08-05T13:02:07.257Z,939.04
2022-08-05T13:03:13.606Z,939.06
2022-08-05T13:04:15.687Z,939.02
2022-08-05T13:05:14.633Z,939.04
2022-08-05T13:06:15.957Z,939.01
2022-08-05T13:07:17.255Z,938.98
2022-08-05T13:08:17.670Z,938.94
2022-08-05T13:09:27.838Z,938.95
2022-08-05T13:10:19.498Z,938.88
2022-08-05T13:11:25.714Z,938.87
2022-08-05T13:12:50.873Z,938.83
2022-08-05T13:15:05.837Z,938.79
2022-08-05T13:16:00.112Z,938.82
2022-08-05T13:17:00.654Z,938.86
2022-08-05T13:18:01.530Z,938.91
2022-08-05T13:19:01.913Z,938.89
2022-08-05T13:20:02.981Z,938.87
2022-08-05T13:21:03.672Z,938.89
2022-08-05T13:22:04.572Z,938.83
2022-08-05T13:23:07.227Z,938.77
2022-08-05T13:24:08.626Z,938.73
2022-08-05T13:26:01.984Z,938.74
2022-08-05T13:27:02.231Z,938.73
2022-08-05T13:28:02.848Z,938.69
2022-08-05T13:29:03.243Z,938.67
2022-08-05T13:30:39.864Z,938.63
2022-08-05T13:32:03.580Z,938.62
2022-08-05T13:32:46.635Z,938.62
2022-08-05T13:34:20.864Z,938.6
2022-08-05T13:34:43.979Z,938.59
2022-08-05T13:35:47.735Z,938.62
2022-08-05T13:36:49.340Z,938.59
2022-08-05T13:37:55.414Z,938.62
2022-08-05T13:38:51.831Z,938.62
2022-08-05T13:40:48.079Z,938.6
2022-08-05T13:41:37.796Z,938.64
2022-08-05T13:42:38.448Z,938.66
2022-08-05T13:43:43.821Z,938.65
2022-08-05T13:44:43.265Z,938.62
2022-08-05T13:45:43.144Z,938.59
2022-08-05T13:47:02.171Z,938.62
2022-08-05T13:49:46.554Z,938.53
2022-08-05T13:50:46.981Z,938.51
2022-08-05T13:51:47.528Z,938.5
2022-08-05T13:52:49.944Z,938.47
2022-08-05T13:53:48.501Z,938.45
2022-08-05T13:54:53.169Z,938.45
2022-08-05T13:55:56.651Z,938.42
2022-08-05T13:56:50.647Z,938.37
2022-08-05T13:57:52.169Z,938.4
2022-08-05T13:58:52.806Z,938.37
2022-08-05T13:59:55.326Z,938.37